createdAt,value
2018-08-06T00:01:44.090Z,22.81
2018-08-06T00:04:13.079Z,22.80
2018-08-06T00:06:42.011Z,22.79
2018-08-06T00:09:10.926Z,22.78
2018-08-06T00:11:40.157Z,22.76
2018-08-06T00:14:09.057Z,22.75
2018-08-06T00:16:38.007Z,22.74
2018-08-06T00:19:07.004Z,22.72
2018-08-06T00:21:36.166Z,22.71
2018-08-06T00:24:05.135Z,22.70
2018-08-06T00:26:34.104Z,22.68
2018-08-06T00:29:03.029Z,22.67
2018-08-06T00:31:32.154Z,22.67
2018-08-06T00:34:01.137Z,22.66
2018-08-06T00:36:30.178Z,22.65
2018-08-06T00:38:59.093Z,22.64
2018-08-06T00:41:28.098Z,22.62
2018-08-06T00:43:57.213Z,22.61
2018-08-06T00:46:26.234Z,22.60
2018-08-06T00:48:55.528Z,22.59
2018-08-06T00:51:24.744Z,22.58
2018-08-06T00:53:53.779Z,22.57
2018-08-06T00:56:22.777Z,22.57
2018-08-06T00:58:52.526Z,22.55
2018-08-06T01:01:21.533Z,22.55
2018-08-06T01:03:50.486Z,22.52
2018-08-06T01:06:20.902Z,22.53
2018-08-06T01:08:49.869Z,22.53
2018-08-06T01:11:18.876Z,22.51
2018-08-06T01:13:47.794Z,22.50
2018-08-06T01:16:16.731Z,22.49
2018-08-06T01:18:45.706Z,22.47
2018-08-06T01:21:14.761Z,22.47
2018-08-06T01:23:43.719Z,22.45
2018-08-06T01:26:12.837Z,22.44
2018-08-06T01:28:41.844Z,22.43
2018-08-06T01:31:11.314Z,22.43
2018-08-06T01:33:41.002Z,22.42
2018-08-06T01:36:09.921Z,22.40
2018-08-06T01:38:38.882Z,22.42
2018-08-06T01:41:08.070Z,22.38
2018-08-06T01:43:37.097Z,22.38
2018-08-06T01:46:07.982Z,22.37
2018-08-06T01:48:37.803Z,22.36
2018-08-06T01:51:08.627Z,22.35
2018-08-06T01:53:38.593Z,22.34
2018-08-06T01:56:09.193Z,22.34
2018-08-06T01:58:38.428Z,22.33
2018-08-06T02:01:07.840Z,22.32
2018-08-06T02:03:36.842Z,22.32
2018-08-06T02:06:06.880Z,22.31
2018-08-06T02:08:38.020Z,22.30
2018-08-06T02:11:07.204Z,22.29
2018-08-06T02:13:36.166Z,22.29
2018-08-06T02:16:05.673Z,22.28
2018-08-06T02:18:34.671Z,22.26
2018-08-06T02:21:03.642Z,22.27
2018-08-06T02:23:32.651Z,22.26
2018-08-06T02:26:01.647Z,22.26
2018-08-06T02:28:30.686Z,22.25
2018-08-06T02:30:59.668Z,22.23
2018-08-06T02:33:28.774Z,22.23
2018-08-06T02:35:57.807Z,22.21
2018-08-06T02:38:26.854Z,22.22
2018-08-06T02:40:55.999Z,22.22
2018-08-06T02:43:24.956Z,22.20
2018-08-06T02:45:53.957Z,22.21
2018-08-06T02:48:22.923Z,22.19
2018-08-06T02:50:51.886Z,22.19
2018-08-06T02:53:20.909Z,22.18
2018-08-06T02:55:49.854Z,22.18
2018-08-06T02:58:19.234Z,22.16
2018-08-06T03:00:48.275Z,22.17
2018-08-06T03:03:17.215Z,22.16
2018-08-06T03:05:46.196Z,22.15
2018-08-06T03:08:15.143Z,22.16
2018-08-06T03:10:44.219Z,22.15
2018-08-06T03:13:13.173Z,22.13
2018-08-06T03:15:42.154Z,22.13
2018-08-06T03:18:11.091Z,22.11
2018-08-06T03:20:40.066Z,22.12
2018-08-06T03:23:09.031Z,22.10
2018-08-06T03:25:37.980Z,22.11
2018-08-06T03:28:07.096Z,22.10
2018-08-06T03:30:36.412Z,22.10
2018-08-06T03:33:05.406Z,22.09
2018-08-06T03:35:34.359Z,22.09
2018-08-06T03:38:03.404Z,22.08
2018-08-06T03:40:32.748Z,22.07
2018-08-06T03:43:01.691Z,22.07
2018-08-06T03:45:30.668Z,22.07
2018-08-06T03:47:59.897Z,22.05
2018-08-06T03:50:28.849Z,22.05
2018-08-06T03:52:57.816Z,22.05
2018-08-06T03:55:27.123Z,22.05
2018-08-06T03:57:56.119Z,22.03
2018-08-06T04:00:25.110Z,22.02
2018-08-06T04:02:54.398Z,22.03
2018-08-06T04:05:23.348Z,22.02
2018-08-06T04:07:52.300Z,22.01
2018-08-06T04:10:21.283Z,22.01
2018-08-06T04:12:50.223Z,21.99
2018-08-06T04:15:19.187Z,21.99
2018-08-06T04:17:48.231Z,21.99
2018-08-06T04:20:17.186Z,21.99
2018-08-06T04:22:46.551Z,21.98
2018-08-06T04:25:15.631Z,21.98
2018-08-06T04:27:44.603Z,21.97
2018-08-06T04:30:14.814Z,21.96
2018-08-06T04:32:44.860Z,21.96
2018-08-06T04:35:13.835Z,21.96
2018-08-06T04:37:43.535Z,21.96
2018-08-06T04:40:13.348Z,21.94
2018-08-06T04:42:43.087Z,21.94
2018-08-06T04:45:12.498Z,21.94
2018-08-06T04:47:42.184Z,21.94
2018-08-06T04:50:13.207Z,21.93
2018-08-06T04:52:42.253Z,21.93
2018-08-06T04:55:13.554Z,21.93
2018-08-06T04:57:42.874Z,21.92
2018-08-06T05:00:14.160Z,21.93
2018-08-06T05:02:43.612Z,21.93
2018-08-06T05:05:13.049Z,21.94
2018-08-06T05:07:42.049Z,21.92
2018-08-06T05:10:11.106Z,21.92
2018-08-06T05:12:40.148Z,21.92
2018-08-06T05:15:09.151Z,21.91
2018-08-06T05:17:38.170Z,21.91
2018-08-06T05:20:07.119Z,21.92
2018-08-06T05:22:36.132Z,21.92
2018-08-06T05:25:05.484Z,21.90
2018-08-06T05:27:34.515Z,21.91
2018-08-06T05:30:03.560Z,21.91
2018-08-06T05:32:32.515Z,21.91
2018-08-06T05:35:01.461Z,21.92
2018-08-06T05:37:30.424Z,21.92
2018-08-06T05:39:59.392Z,21.92
2018-08-06T05:42:28.886Z,21.92
2018-08-06T05:44:57.860Z,21.93
2018-08-06T05:47:27.216Z,21.93
2018-08-06T05:49:56.179Z,21.93
2018-08-06T05:52:25.695Z,21.93
2018-08-06T05:54:56.558Z,21.93
2018-08-06T05:57:26.416Z,21.93
2018-08-06T05:59:55.846Z,21.95
2018-08-06T06:02:25.683Z,21.94
2018-08-06T06:04:55.168Z,21.95
2018-08-06T06:07:24.482Z,21.95
2018-08-06T06:09:55.540Z,21.95
2018-08-06T06:12:24.930Z,21.95
2018-08-06T06:14:55.868Z,21.96
2018-08-06T06:17:25.122Z,21.97
2018-08-06T06:19:54.380Z,21.97
2018-08-06T06:22:24.231Z,21.97
2018-08-06T06:24:54.154Z,21.97
2018-08-06T06:27:24.180Z,21.98
2018-08-06T06:29:54.688Z,21.99
2018-08-06T06:32:24.581Z,21.98
2018-08-06T06:34:57.856Z,21.98
2018-08-06T06:37:29.900Z,21.99
2018-08-06T06:40:01.565Z,22.01
2018-08-06T06:42:32.397Z,22.02
2018-08-06T06:45:02.687Z,22.03
2018-08-06T06:47:35.151Z,22.03
2018-08-06T06:50:09.522Z,22.03
2018-08-06T06:52:38.512Z,22.04
2018-08-06T06:55:09.867Z,22.05
2018-08-06T06:57:38.814Z,22.06
2018-08-06T07:00:09.018Z,22.06
2018-08-06T07:02:38.107Z,22.07
2018-08-06T07:05:07.751Z,22.07
2018-08-06T07:07:37.386Z,22.07
2018-08-06T07:10:08.889Z,22.07
2018-08-06T07:12:38.224Z,22.07
2018-08-06T07:15:10.600Z,22.07
2018-08-06T07:17:40.022Z,22.06
2018-08-06T07:20:09.608Z,22.07
2018-08-06T07:22:39.537Z,22.08
2018-08-06T07:25:10.663Z,22.07
2018-08-06T07:27:41.667Z,22.08
2018-08-06T07:30:13.801Z,22.09
2018-08-06T07:32:44.329Z,22.10
2018-08-06T07:35:14.806Z,22.09
2018-08-06T07:37:44.048Z,22.10
2018-08-06T07:40:15.246Z,22.16
2018-08-06T07:42:45.790Z,22.19
2018-08-06T07:45:17.165Z,22.27
2018-08-06T07:47:46.983Z,22.32
2018-08-06T07:50:17.742Z,22.33
2018-08-06T07:52:46.859Z,22.29
2018-08-06T07:55:16.340Z,22.28
2018-08-06T07:57:45.356Z,22.28
2018-08-06T08:00:19.019Z,22.29
2018-08-06T08:02:48.201Z,22.30
2018-08-06T08:05:18.432Z,22.31
2018-08-06T08:07:48.196Z,22.30
2018-08-06T08:10:22.642Z,22.32
2018-08-06T08:12:51.655Z,22.34
2018-08-06T08:15:26.594Z,22.34
2018-08-06T08:17:57.034Z,22.34
2018-08-06T08:20:26.302Z,22.37
2018-08-06T08:22:55.307Z,22.38
2018-08-06T08:25:24.457Z,22.42
2018-08-06T08:27:53.490Z,22.47
2018-08-06T08:30:22.804Z,22.44
2018-08-06T08:32:52.127Z,22.44
2018-08-06T08:35:21.130Z,22.47
2018-08-06T08:37:50.204Z,22.48
2018-08-06T08:40:20.103Z,22.50
2018-08-06T08:42:49.295Z,22.48
2018-08-06T08:45:18.887Z,22.49
2018-08-06T08:47:48.924Z,22.50
2018-08-06T08:50:20.288Z,22.49
2018-08-06T08:52:52.047Z,22.51
2018-08-06T08:55:21.799Z,22.49
2018-08-06T08:57:50.762Z,22.48
2018-08-06T09:00:21.739Z,22.51
2018-08-06T09:02:51.948Z,22.55
2018-08-06T09:05:21.249Z,22.57
2018-08-06T09:07:51.217Z,22.57
2018-08-06T09:10:20.719Z,22.57
2018-08-06T09:12:50.744Z,22.63
2018-08-06T09:15:25.210Z,22.63
2018-08-06T09:17:55.080Z,22.64
2018-08-06T09:20:24.946Z,22.66
2018-08-06T09:22:55.969Z,22.66
2018-08-06T09:25:25.207Z,22.67
2018-08-06T09:27:54.183Z,22.68
2018-08-06T09:30:24.362Z,22.69
2018-08-06T09:32:54.980Z,22.71
2018-08-06T09:35:24.210Z,22.73
2018-08-06T09:37:53.267Z,22.75
2018-08-06T09:40:23.415Z,22.75
2018-08-06T09:42:52.755Z,22.80
2018-08-06T09:45:22.697Z,22.81
2018-08-06T09:47:53.476Z,22.81
2018-08-06T09:50:23.029Z,22.82
2018-08-06T09:52:53.147Z,22.84
2018-08-06T09:55:25.106Z,22.83
2018-08-06T09:57:54.331Z,22.84
2018-08-06T10:00:28.924Z,22.85
2018-08-06T10:02:59.487Z,22.86
2018-08-06T10:05:29.784Z,22.88
2018-08-06T10:07:59.845Z,22.89
2018-08-06T10:10:29.217Z,22.91
2018-08-06T10:12:58.506Z,22.90
2018-08-06T10:15:27.651Z,22.92
2018-08-06T10:17:57.122Z,22.93
2018-08-06T10:20:27.204Z,22.94
2018-08-06T10:22:56.780Z,22.96
2018-08-06T10:25:25.754Z,22.97
2018-08-06T10:27:54.951Z,22.98
2018-08-06T10:30:24.394Z,22.99
2018-08-06T10:32:53.630Z,22.99
2018-08-06T10:35:22.890Z,23.00
2018-08-06T10:37:53.007Z,23.02
2018-08-06T10:40:24.703Z,23.02
2018-08-06T10:42:54.274Z,23.02
2018-08-06T10:45:24.651Z,23.03
2018-08-06T10:47:55.176Z,23.04
2018-08-06T10:50:25.115Z,23.06
2018-08-06T10:52:54.939Z,23.07
2018-08-06T10:55:25.104Z,23.07
2018-08-06T10:57:54.070Z,23.08
2018-08-06T11:00:24.274Z,23.09
2018-08-06T11:02:54.941Z,23.09
2018-08-06T11:05:24.696Z,23.09
2018-08-06T11:07:54.861Z,23.11
2018-08-06T11:10:25.291Z,23.10
2018-08-06T11:12:56.471Z,23.12
2018-08-06T11:15:27.319Z,23.13
2018-08-06T11:17:58.875Z,23.14
2018-08-06T11:20:30.008Z,23.15
2018-08-06T11:23:02.815Z,23.16
2018-08-06T11:25:32.848Z,23.17
2018-08-06T11:28:02.896Z,23.19
2018-08-06T11:30:32.916Z,23.20
2018-08-06T11:33:04.018Z,23.21
2018-08-06T11:35:35.611Z,23.26
2018-08-06T11:38:20.507Z,23.30
2018-08-06T11:40:54.165Z,23.33
2018-08-06T11:43:23.729Z,23.35
2018-08-06T11:45:54.024Z,23.35
2018-08-06T11:48:24.983Z,23.35
2018-08-06T11:50:56.238Z,23.42
2018-08-06T11:53:26.906Z,23.45
2018-08-06T11:55:58.747Z,23.45
2018-08-06T11:58:28.771Z,23.47
2018-08-06T12:00:58.930Z,23.50
2018-08-06T12:03:28.398Z,23.52
2018-08-06T12:05:57.695Z,23.55
2018-08-06T12:08:27.996Z,23.55
2018-08-06T12:10:57.727Z,23.57
2018-08-06T12:13:27.191Z,23.56
2018-08-06T12:15:57.512Z,23.56
2018-08-06T12:18:26.880Z,23.64
2018-08-06T12:20:56.412Z,23.67
2018-08-06T12:23:26.383Z,23.66
2018-08-06T12:25:55.826Z,23.66
2018-08-06T12:28:26.220Z,23.67
2018-08-06T12:30:58.805Z,23.68
2018-08-06T12:33:28.274Z,23.68
2018-08-06T12:35:57.390Z,23.72
2018-08-06T12:38:36.795Z,23.78
2018-08-06T12:41:06.643Z,23.77
2018-08-06T12:43:38.537Z,23.78
2018-08-06T12:46:07.856Z,23.78
2018-08-06T12:48:40.410Z,23.83
2018-08-06T12:51:11.289Z,23.80
2018-08-06T12:53:41.371Z,23.91
2018-08-06T12:56:12.273Z,23.95
2018-08-06T12:58:42.434Z,23.97
2018-08-06T13:01:11.794Z,23.96
2018-08-06T13:03:43.211Z,23.96
2018-08-06T13:06:12.841Z,23.97
2018-08-06T13:08:43.403Z,23.99
2018-08-06T13:11:14.249Z,23.99
2018-08-06T13:13:43.765Z,24.01
2018-08-06T13:16:13.249Z,24.01
2018-08-06T13:18:43.590Z,24.04
2018-08-06T13:21:12.592Z,24.01
2018-08-06T13:23:42.502Z,24.04
2018-08-06T13:26:12.519Z,24.06
2018-08-06T13:28:41.933Z,24.06
2018-08-06T13:31:12.546Z,24.07
2018-08-06T13:33:42.326Z,24.12
2018-08-06T13:36:12.581Z,24.17
2018-08-06T13:38:41.861Z,24.15
2018-08-06T13:41:11.987Z,24.16
2018-08-06T13:43:41.796Z,24.16
2018-08-06T13:46:11.270Z,24.18
2018-08-06T13:48:42.343Z,24.20
2018-08-06T13:51:11.671Z,24.23
2018-08-06T13:53:41.572Z,24.19
2018-08-06T13:56:12.302Z,24.28
2018-08-06T13:58:42.655Z,24.29
2018-08-06T14:01:11.847Z,24.36
2018-08-06T14:03:41.179Z,24.39
2018-08-06T14:06:10.975Z,24.38
2018-08-06T14:08:40.630Z,24.36
2018-08-06T14:11:10.118Z,24.36
2018-08-06T14:13:39.366Z,24.35
2018-08-06T14:16:10.383Z,24.44
2018-08-06T14:18:39.875Z,24.43
2018-08-06T14:21:09.651Z,24.42
2018-08-06T14:23:38.842Z,24.43
2018-08-06T14:26:08.239Z,24.39
2018-08-06T14:28:37.586Z,24.40
2018-08-06T14:31:07.643Z,24.42
2018-08-06T14:33:37.018Z,24.46
2018-08-06T14:36:06.744Z,24.46
2018-08-06T14:38:36.801Z,24.47
2018-08-06T14:41:06.948Z,24.46
2018-08-06T14:43:36.282Z,24.44
2018-08-06T14:46:05.578Z,24.41
2018-08-06T14:48:36.156Z,24.42
2018-08-06T14:51:05.730Z,24.41
2018-08-06T14:53:36.419Z,24.42
2018-08-06T14:56:06.444Z,24.41
2018-08-06T14:58:36.487Z,24.42
2018-08-06T15:01:05.651Z,24.40
2018-08-06T15:03:35.851Z,24.43
2018-08-06T15:06:06.504Z,24.44
2018-08-06T15:08:35.750Z,24.45
2018-08-06T15:12:19.558Z,24.45
2018-08-06T15:14:50.465Z,24.43
2018-08-06T15:17:22.643Z,24.42
2018-08-06T15:19:51.751Z,24.42
2018-08-06T15:22:21.455Z,24.41
2018-08-06T15:24:51.322Z,24.40
2018-08-06T15:27:21.290Z,24.42
2018-08-06T15:29:51.673Z,24.43
2018-08-06T15:32:20.922Z,24.42
2018-08-06T15:34:50.171Z,24.42
2018-08-06T15:37:19.510Z,24.41
2018-08-06T15:39:49.643Z,24.40
2018-08-06T15:42:18.778Z,24.40
2018-08-06T15:44:50.650Z,24.39
2018-08-06T15:47:20.519Z,24.41
2018-08-06T15:49:49.967Z,24.41
2018-08-06T15:52:19.339Z,24.40
2018-08-06T15:54:49.217Z,24.41
2018-08-06T15:57:18.663Z,24.40
2018-08-06T15:59:47.782Z,24.42
2018-08-06T16:02:17.275Z,24.43
2018-08-06T16:04:46.815Z,24.44
2018-08-06T16:07:16.191Z,24.44
2018-08-06T16:09:45.894Z,24.41
2018-08-06T16:12:15.047Z,24.41
2018-08-06T16:14:46.902Z,24.41
2018-08-06T16:17:16.226Z,24.42
2018-08-06T16:19:46.279Z,24.44
2018-08-06T16:22:15.600Z,24.41
2018-08-06T16:24:44.863Z,24.40
2018-08-06T16:27:14.488Z,24.39
2018-08-06T16:29:43.883Z,24.40
2018-08-06T16:32:13.738Z,24.38
2018-08-06T16:34:44.309Z,24.38
2018-08-06T16:37:13.911Z,24.38
2018-08-06T16:39:44.507Z,24.37
2018-08-06T16:42:14.908Z,24.36
2018-08-06T16:44:44.775Z,24.36
2018-08-06T16:47:14.782Z,24.36
2018-08-06T16:49:45.043Z,24.35
2018-08-06T16:52:14.166Z,24.34
2018-08-06T16:54:43.130Z,24.34
2018-08-06T16:57:12.483Z,24.35
2018-08-06T16:59:41.424Z,24.32
2018-08-06T17:02:10.779Z,24.33
2018-08-06T17:04:40.479Z,24.33
2018-08-06T17:07:09.629Z,24.32
2018-08-06T17:09:39.035Z,24.31
2018-08-06T17:12:08.442Z,24.31
2018-08-06T17:14:38.095Z,24.29
2018-08-06T17:17:07.447Z,24.29
2018-08-06T17:19:37.834Z,24.30
2018-08-06T17:22:07.228Z,24.30
2018-08-06T17:24:39.172Z,24.28
2018-08-06T17:27:08.433Z,24.28
2018-08-06T17:29:37.814Z,24.28
2018-08-06T17:32:08.886Z,24.27
2018-08-06T17:34:39.000Z,24.27
2018-08-06T17:37:08.210Z,24.27
2018-08-06T17:39:38.005Z,24.25
2018-08-06T17:42:07.846Z,24.26
2018-08-06T17:44:37.262Z,24.26
2018-08-06T17:47:07.286Z,24.22
2018-08-06T17:49:36.791Z,24.22
2018-08-06T17:52:07.001Z,24.22
2018-08-06T17:54:36.984Z,24.22
2018-08-06T17:57:06.180Z,24.20
2018-08-06T17:59:35.790Z,24.22
2018-08-06T18:02:05.157Z,24.20
2018-08-06T18:04:34.612Z,24.20
2018-08-06T18:07:05.571Z,24.22
2018-08-06T18:09:35.185Z,24.19
2018-08-06T18:12:04.876Z,24.16
2018-08-06T18:14:34.155Z,24.16
2018-08-06T18:17:04.171Z,24.15
2018-08-06T18:19:34.180Z,24.15
2018-08-06T18:22:03.632Z,24.13
2018-08-06T18:24:34.249Z,24.14
2018-08-06T18:27:03.789Z,24.13
2018-08-06T18:29:33.892Z,24.11
2018-08-06T18:32:03.219Z,24.11
2018-08-06T18:34:32.655Z,24.11
2018-08-06T18:37:02.627Z,24.10
2018-08-06T18:39:32.175Z,24.09
2018-08-06T18:42:01.583Z,24.07
2018-08-06T18:44:30.878Z,24.08
2018-08-06T18:47:00.127Z,24.06
2018-08-06T18:49:30.318Z,24.05
2018-08-06T18:51:59.836Z,24.04
2018-08-06T18:54:30.209Z,24.04
2018-08-06T18:56:59.993Z,24.03
2018-08-06T18:59:29.150Z,24.03
2018-08-06T19:01:58.533Z,24.03
2018-08-06T19:04:28.365Z,24.01
2018-08-06T19:06:57.697Z,24.02
2018-08-06T19:09:26.963Z,24.01
2018-08-06T19:12:00.424Z,23.99
2018-08-06T19:14:29.752Z,23.96
2018-08-06T19:16:58.927Z,23.94
2018-08-06T19:19:29.235Z,23.92
2018-08-06T19:21:59.876Z,23.91
2018-08-06T19:24:34.750Z,23.88
2018-08-06T19:27:04.212Z,23.88
2018-08-06T19:29:34.743Z,23.86
2018-08-06T19:32:04.370Z,23.85
2018-08-06T19:34:33.588Z,23.83
2018-08-06T19:38:10.283Z,23.83
2018-08-06T19:40:39.739Z,23.82
2018-08-06T19:43:15.534Z,23.80
2018-08-06T19:45:45.372Z,23.78
2018-08-06T19:48:15.598Z,23.77
2018-08-06T19:50:45.596Z,23.75
2018-08-06T19:53:14.860Z,23.72
2018-08-06T19:55:49.146Z,23.71
2018-08-06T19:58:18.150Z,23.69
2018-08-06T20:00:47.891Z,23.68
2018-08-06T20:03:18.318Z,23.66
2018-08-06T20:05:47.720Z,23.65
2018-08-06T20:08:17.228Z,23.64
2018-08-06T20:10:47.084Z,23.63
2018-08-06T20:13:16.548Z,23.63
2018-08-06T20:15:46.241Z,23.62
2018-08-06T20:18:15.576Z,23.62
2018-08-06T20:20:45.350Z,23.59
2018-08-06T20:23:14.696Z,23.58
2018-08-06T20:25:44.267Z,23.57
2018-08-06T20:28:13.871Z,23.55
2018-08-06T20:30:43.726Z,23.54
2018-08-06T20:33:12.963Z,23.52
2018-08-06T20:35:42.706Z,23.50
2018-08-06T20:38:11.935Z,23.49
2018-08-06T20:40:42.077Z,23.49
2018-08-06T20:43:14.217Z,23.47
2018-08-06T20:45:44.476Z,23.46
2018-08-06T20:48:13.652Z,23.44
2018-08-06T20:50:42.944Z,23.42
2018-08-06T20:53:12.496Z,23.42
2018-08-06T20:55:41.891Z,23.41
2018-08-06T20:58:11.491Z,23.39
2018-08-06T21:00:41.069Z,23.39
2018-08-06T21:03:12.425Z,23.38
2018-08-06T21:05:42.026Z,23.36
2018-08-06T21:08:12.003Z,23.36
2018-08-06T21:10:41.548Z,23.34
2018-08-06T21:13:10.959Z,23.34
2018-08-06T21:15:40.249Z,23.32
2018-08-06T21:18:09.648Z,23.31
2018-08-06T21:20:38.948Z,23.30
2018-08-06T21:23:08.251Z,23.29
2018-08-06T21:25:37.879Z,23.27
2018-08-06T21:28:08.131Z,23.27
2018-08-06T21:30:37.684Z,23.26
2018-08-06T21:33:07.603Z,23.25
2018-08-06T21:35:37.210Z,23.24
2018-08-06T21:38:07.790Z,23.23
2018-08-06T21:40:37.190Z,23.22
2018-08-06T21:43:07.484Z,23.21
2018-08-06T21:45:38.080Z,23.20
2018-08-06T21:48:07.706Z,23.19
2018-08-06T21:50:37.305Z,23.18
2018-08-06T21:53:06.838Z,23.17
2018-08-06T21:55:36.493Z,23.16
2018-08-06T21:58:07.184Z,23.14
2018-08-06T22:00:41.693Z,23.14
2018-08-06T22:03:14.498Z,23.14
2018-08-06T22:05:44.893Z,23.12
2018-08-06T22:08:15.268Z,23.10
2018-08-06T22:10:45.063Z,23.11
2018-08-06T22:13:14.454Z,23.09
2018-08-06T22:15:45.040Z,23.07
2018-08-06T22:18:14.483Z,23.07
2018-08-06T22:20:44.334Z,23.06
2018-08-06T22:23:13.586Z,23.05
2018-08-06T22:25:43.427Z,23.05
2018-08-06T22:28:13.270Z,23.04
2018-08-06T22:30:42.672Z,23.04
2018-08-06T22:33:11.851Z,23.03
2018-08-06T22:35:41.255Z,23.02
2018-08-06T22:38:10.530Z,23.02
2018-08-06T22:40:41.187Z,23.00
2018-08-06T22:43:11.119Z,23.01
2018-08-06T22:45:40.545Z,23.01
2018-08-06T22:48:10.406Z,22.99
2018-08-06T22:50:40.342Z,22.98
2018-08-06T22:53:10.255Z,22.98
2018-08-06T22:55:51.513Z,22.96
2018-08-06T22:58:20.942Z,22.96
2018-08-06T23:00:50.375Z,22.96
2018-08-06T23:03:20.363Z,22.95
2018-08-06T23:05:51.142Z,22.93
2018-08-06T23:08:21.154Z,22.92
2018-08-06T23:10:50.730Z,22.93
2018-08-06T23:13:20.013Z,22.91
2018-08-06T23:15:50.849Z,22.92
2018-08-06T23:18:20.878Z,22.91
2018-08-06T23:20:51.317Z,22.90
2018-08-06T23:23:21.624Z,22.91
2018-08-06T23:25:51.752Z,22.91
2018-08-06T23:28:21.247Z,22.92
2018-08-06T23:30:50.546Z,22.92
2018-08-06T23:33:19.738Z,22.92
2018-08-06T23:35:49.453Z,22.93
2018-08-06T23:38:18.758Z,22.92
2018-08-06T23:40:48.312Z,22.91
2018-08-06T23:43:17.575Z,22.91
2018-08-06T23:45:46.790Z,22.91
2018-08-06T23:48:16.272Z,22.90
2018-08-06T23:50:46.563Z,22.90
2018-08-06T23:53:15.919Z,22.90
2018-08-06T23:55:45.870Z,22.90
2018-08-06T23:58:15.329Z,22.90
